Time;durP1;ratioP1;P1;durP2;ratioP2;P2;SDS_P1;SDS_P2;PMS_P1;PMS_P2;Temp;Humidity;BMP_temperature;BMP_pressure;BME280_temperature;BME280_humidity;BME280_pressure;Samples;Min_cycle;Max_cycle;Signal;HPM_P1;HPM_P2
2022/09/10 00:00:53;;;;;;;;;;;;;;;;;;5055879;28;1963;-73
2022/09/10 00:03:20;;;;;;;;;;;;;;;;;;5062331;28;1322;-73
2022/09/10 00:05:45;;;;;;;;;;;;;;;;;;5057644;28;1292;-73
2022/09/10 00:08:10;;;;;;;;;;;;;;;;;;5060866;28;1235;-73
2022/09/10 00:10:39;;;;;;;;;;;;;;;;;;5062856;28;1254;-73
2022/09/10 00:13:05;;;;;;;;;;;;;;;;;;5059520;28;1232;-73
2022/09/10 00:15:30;;;;;;;;;;;;;;;;;;5058486;28;1335;-73
2022/09/10 00:17:55;;;;;;;;;;;;;;;;;;5062763;28;1184;-73
2022/09/10 00:20:20;;;;;;;;;;;;;;;;;;5061973;28;1271;-73
2022/09/10 00:22:47;;;;;;;;;;;;;;;;;;5058991;28;1902;-73
2022/09/10 00:25:14;;;;;;;;;;;;;;;;;;5061865;28;1196;-73
2022/09/10 00:27:39;;;;;;;;;;;;;;;;;;5062280;28;1342;-73
2022/09/10 00:30:05;;;;;;;;;;;;;;;;;;5062260;28;1300;-73
2022/09/10 00:32:30;;;;;;;;;;;;;;;;;;5060209;28;1319;-73
2022/09/10 00:34:56;;;;;;;;;;;;;;;;;;5061390;28;1451;-73
2022/09/10 00:37:21;;;;;;;;;;;;;;;;;;5059002;28;1586;-75
2022/09/10 00:39:46;;;;;;;;;;;;;;;;;;5058588;28;1257;-75
2022/09/10 00:42:12;;;;;;;;;;;;;;;;;;5060462;28;1965;-75
2022/09/10 00:44:39;;;;;;;;;;;;;;;;;;5060290;28;1420;-74
2022/09/10 00:47:06;;;;;;;;;;;;;;;;;;5059144;28;1302;-74
2022/09/10 00:49:37;;;;;;;;;;;;;;;;;;5062051;28;1231;-75
2022/09/10 00:52:03;;;;;;;;;;;;;;;;;;5056140;28;1499;-74
2022/09/10 00:54:29;;;;;;;;;;;;;;;;;;5061123;28;1302;-74
2022/09/10 00:56:57;;;;;;;;;;;;;;;;;;5061726;28;1283;-75
2022/09/10 00:59:25;;;;;;;;;;;;;;;;;;5060939;28;1292;-75
2022/09/10 01:01:50;;;;;;;;;;;;;;;;;;5058328;28;1893;-75
2022/09/10 01:04:16;;;;;;;;;;;;;;;;;;5061366;28;1267;-75
2022/09/10 01:06:42;;;;;;;;;;;;;;;;;;5061831;28;1161;-75
2022/09/10 01:09:08;;;;;;;;;;;;;;;;;;5060353;28;1320;-75
2022/09/10 01:11:51;;;;;;;;;;;;;;;;;;5055743;28;1270;-75
2022/09/10 01:14:20;;;;;;;;;;;;;;;;;;5060355;28;1401;-75
2022/09/10 01:16:56;;;;;;;;;;;;;;;;;;5058184;28;1349;-75
2022/09/10 01:19:21;;;;;;;;;;;;;;;;;;5059554;28;1236;-75
2022/09/10 01:21:59;;;;;;;;;;;;;;;;;;5061305;28;1959;-75
2022/09/10 01:24:43;;;;;;;;;;;;;;;;;;5059379;28;1271;-75
2022/09/10 01:27:11;;;;;;;;;;;;;;;;;;5058576;28;1300;-75
2022/09/10 01:29:38;;;;;;;;;;;;;;;;;;5061664;28;1301;-74
2022/09/10 01:32:04;;;;;;;;;;;;;;;;;;5058123;28;1251;-74
2022/09/10 01:34:42;;;;;;;;;;;;;;;;;;5061137;28;1410;-74
2022/09/10 01:37:13;;;;;;;;;;;;;;;;;;5057595;28;1259;-75
2022/09/10 01:39:38;;;;;;;;;;;;;;;;;;5061769;28;1295;-75
2022/09/10 01:42:04;;;;;;;;;;;;;;;;;;5055043;28;1894;-74
2022/09/10 01:44:44;;;;;;;;;;;;;;;;;;5056400;28;1297;-74
2022/09/10 01:47:24;;;;;;;;;;;;;;;;;;5058242;28;1490;-74
2022/09/10 01:49:56;;;;;;;;;;;;;;;;;;5060397;28;1248;-75
2022/09/10 01:52:41;;;;;;;;;;;;;;;;;;5058383;28;1304;-74
2022/09/10 01:55:18;;;;;;;;;;;;;;;;;;5055174;28;1272;-74
2022/09/10 01:57:51;;;;;;;;;;;;;;;;;;5058336;28;1248;-75
2022/09/10 02:00:17;;;;;;;;;;;;;;;;;;5059714;28;1276;-75
2022/09/10 02:02:51;;;;;;;;;;;;;;;;;;5055039;28;1894;-75
2022/09/10 02:05:18;;;;;;;;;;;;;;;;;;5056936;28;1295;-74
2022/09/10 02:07:45;;;;;;;;;;;;;;;;;;5059451;28;1216;-74
2022/09/10 02:10:10;;;;;;;;;;;;;;;;;;5055742;28;1452;-75
2022/09/10 02:12:35;;;;;;;;;;;;;;;;;;5055467;28;1637;-75
2022/09/10 02:15:01;;;;;;;;;;;;;;;;;;5060265;28;1184;-74
2022/09/10 02:17:32;;;;;;;;;;;;;;;;;;5058210;28;1614;-74
2022/09/10 02:19:58;;;;;;;;;;;;;;;;;;5061346;28;1305;-74
2022/09/10 02:22:24;;;;;;;;;;;;;;;;;;5059115;28;1902;-74
2022/09/10 02:24:49;;;;;;;;;;;;;;;;;;5058848;28;1225;-74
2022/09/10 02:27:14;;;;;;;;;;;;;;;;;;5057726;28;1491;-74
2022/09/10 02:29:40;;;;;;;;;;;;;;;;;;5059478;28;1247;-74
2022/09/10 02:32:07;;;;;;;;;;;;;;;;;;5058601;28;1327;-74
2022/09/10 02:34:33;;;;;;;;;;;;;;;;;;5059737;28;1314;-75
2022/09/10 02:36:58;;;;;;;;;;;;;;;;;;5059376;28;1251;-73
2022/09/10 02:39:23;;;;;;;;;;;;;;;;;;5057256;28;1622;-73
2022/09/10 02:41:48;;;;;;;;;;;;;;;;;;5060716;28;1965;-74
2022/09/10 02:44:14;;;;;;;;;;;;;;;;;;5058887;28;1315;-73
2022/09/10 02:46:39;;;;;;;;;;;;;;;;;;5059607;28;1288;-73
2022/09/10 02:49:05;;;;;;;;;;;;;;;;;;5064645;28;1359;-74
2022/09/10 02:51:30;;;;;;;;;;;;;;;;;;5061894;28;1243;-75
2022/09/10 02:53:55;;;;;;;;;;;;;;;;;;5065032;28;1318;-74
2022/09/10 02:56:21;;;;;;;;;;;;;;;;;;5058580;28;1177;-73
2022/09/10 02:58:47;;;;;;;;;;;;;;;;;;5064544;28;1341;-74
2022/09/10 03:01:14;;;;;;;;;;;;;;;;;;5059493;28;1903;-73
2022/09/10 03:03:39;;;;;;;;;;;;;;;;;;5061839;28;1274;-74
2022/09/10 03:06:05;;;;;;;;;;;;;;;;;;5065555;28;1302;-73
2022/09/10 03:08:30;;;;;;;;;;;;;;;;;;5061040;28;1291;-74
2022/09/10 03:10:58;;;;;;;;;;;;;;;;;;5056803;28;1269;-75
2022/09/10 03:13:24;;;;;;;;;;;;;;;;;;5050971;28;1378;-74
2022/09/10 03:15:50;;;;;;;;;;;;;;;;;;5059100;28;1288;-75
2022/09/10 03:18:16;;;;;;;;;;;;;;;;;;5067593;28;1077;-74
2022/09/10 03:20:42;;;;;;;;;;;;;;;;;;5067608;28;1271;-75
2022/09/10 03:23:07;;;;;;;;;;;;;;;;;;5064718;28;1905;-74
2022/09/10 03:25:32;;;;;;;;;;;;;;;;;;5058431;28;1227;-73
2022/09/10 03:27:58;;;;;;;;;;;;;;;;;;5058725;28;1263;-74
2022/09/10 03:30:24;;;;;;;;;;;;;;;;;;5058186;28;1221;-74
2022/09/10 03:32:49;;;;;;;;;;;;;;;;;;5058957;28;1354;-74
2022/09/10 03:35:15;;;;;;;;;;;;;;;;;;5056846;28;1320;-74
2022/09/10 03:37:41;;;;;;;;;;;;;;;;;;5056179;28;1499;-73
2022/09/10 03:40:06;;;;;;;;;;;;;;;;;;5058090;28;1321;-72
2022/09/10 03:42:31;;;;;;;;;;;;;;;;;;5059149;28;1914;-73
2022/09/10 03:44:57;;;;;;;;;;;;;;;;;;5057220;28;1266;-73
2022/09/10 03:47:22;;;;;;;;;;;;;;;;;;5056702;28;1606;-74
2022/09/10 03:49:49;;;;;;;;;;;;;;;;;;5055255;28;1359;-74
2022/09/10 03:52:15;;;;;;;;;;;;;;;;;;5056396;28;1312;-74
2022/09/10 03:54:40;;;;;;;;;;;;;;;;;;5039764;28;1395;-74
2022/09/10 03:57:05;;;;;;;;;;;;;;;;;;5059438;28;1303;-74
2022/09/10 03:59:31;;;;;;;;;;;;;;;;;;5055594;28;1241;-72
2022/09/10 04:01:56;;;;;;;;;;;;;;;;;;5056596;28;1986;-72
2022/09/10 04:04:21;;;;;;;;;;;;;;;;;;5054498;28;1382;-72
2022/09/10 04:06:47;;;;;;;;;;;;;;;;;;5058533;28;1327;-72
2022/09/10 04:09:12;;;;;;;;;;;;;;;;;;5056407;28;1254;-72
2022/09/10 04:11:37;;;;;;;;;;;;;;;;;;5059602;28;1195;-71
2022/09/10 04:14:02;;;;;;;;;;;;;;;;;;5059201;28;1314;-72
2022/09/10 04:16:27;;;;;;;;;;;;;;;;;;5052623;28;1295;-72
2022/09/10 04:18:53;;;;;;;;;;;;;;;;;;5056354;28;1295;-72
2022/09/10 04:21:19;;;;;;;;;;;;;;;;;;5058358;28;1967;-72
2022/09/10 04:23:44;;;;;;;;;;;;;;;;;;5059179;28;1271;-72
2022/09/10 04:26:14;;;;;;;;;;;;;;;;;;5058707;28;1171;-72
2022/09/10 04:28:39;;;;;;;;;;;;;;;;;;5057070;28;1184;-73
2022/09/10 04:31:04;;;;;;;;;;;;;;;;;;5054928;28;1331;-72
2022/09/10 04:33:32;;;;;;;;;;;;;;;;;;5051107;28;1332;-73
2022/09/10 04:35:59;;;;;;;;;;;;;;;;;;5055156;28;1681;-73
2022/09/10 04:38:25;;;;;;;;;;;;;;;;;;5058708;28;1195;-72
2022/09/10 04:40:50;;;;;;;;;;;;;;;;;;5048051;28;1400;-73
2022/09/10 04:43:16;;;;;;;;;;;;;;;;;;5053391;28;1894;-73
2022/09/10 04:45:42;;;;;;;;;;;;;;;;;;5056336;28;1287;-72
2022/09/10 04:48:07;;;;;;;;;;;;;;;;;;5062194;28;1314;-72
2022/09/10 04:50:32;;;;;;;;;;;;;;;;;;5060954;28;1223;-72
2022/09/10 04:52:57;;;;;;;;;;;;;;;;;;5059953;28;1327;-72
2022/09/10 04:55:24;;;;;;;;;;;;;;;;;;5059761;28;1107;-73
2022/09/10 04:57:49;;;;;;;;;;;;;;;;;;5061165;28;1413;-73
2022/09/10 05:00:15;;;;;;;;;;;;;;;;;;5058020;28;1274;-74
2022/09/10 05:02:40;;;;;;;;;;;;;;;;;;5043348;28;1945;-73
2022/09/10 05:05:05;;;;;;;;;;;;;;;;;;5059175;28;1276;-73
2022/09/10 05:07:30;;;;;;;;;;;;;;;;;;5061497;28;1522;-73
2022/09/10 05:09:56;;;;;;;;;;;;;;;;;;5061704;28;1217;-73
2022/09/10 05:12:22;;;;;;;;;;;;;;;;;;5057157;28;1305;-73
2022/09/10 05:14:47;;;;;;;;;;;;;;;;;;5058896;28;1285;-73
2022/09/10 05:17:13;;;;;;;;;;;;;;;;;;5053993;28;1373;-73
2022/09/10 05:19:38;;;;;;;;;;;;;;;;;;5061419;28;1243;-73
2022/09/10 05:22:03;;;;;;;;;;;;;;;;;;5059601;28;1906;-73
2022/09/10 05:24:28;;;;;;;;;;;;;;;;;;5060956;28;1381;-73
2022/09/10 05:26:53;;;;;;;;;;;;;;;;;;5059790;28;1338;-73
2022/09/10 05:29:20;;;;;;;;;;;;;;;;;;5061617;28;1194;-73
2022/09/10 05:31:46;;;;;;;;;;;;;;;;;;5052418;28;1602;-73
2022/09/10 05:34:11;;;;;;;;;;;;;;;;;;5060269;28;1439;-73
2022/09/10 05:36:36;;;;;;;;;;;;;;;;;;5057108;28;1339;-73
2022/09/10 05:39:02;;;;;;;;;;;;;;;;;;5060160;28;1295;-73
2022/09/10 05:41:29;;;;;;;;;;;;;;;;;;5061533;28;1902;-73
2022/09/10 05:43:55;;;;;;;;;;;;;;;;;;5053749;28;1356;-74
2022/09/10 05:46:21;;;;;;;;;;;;;;;;;;5055686;28;1296;-74
2022/09/10 05:48:46;;;;;;;;;;;;;;;;;;5061799;28;1252;-73
2022/09/10 05:51:11;;;;;;;;;;;;;;;;;;5061007;28;1310;-74
2022/09/10 05:53:37;;;;;;;;;;;;;;;;;;5059368;28;1345;-74
2022/09/10 05:56:04;;;;;;;;;;;;;;;;;;5059122;28;1114;-74
2022/09/10 05:58:29;;;;;;;;;;;;;;;;;;5042652;28;1291;-74
2022/09/10 06:00:54;;;;;;;;;;;;;;;;;;5056983;28;1265;-74
2022/09/10 06:03:20;;;;;;;;;;;;;;;;;;5057962;28;1897;-73
2022/09/10 06:05:52;;;;;;;;;;;;;;;;;;5056358;28;1266;-74
2022/09/10 06:08:17;;;;;;;;;;;;;;;;;;5060015;28;1224;-74
2022/09/10 06:10:52;;;;;;;;;;;;;;;;;;5060537;28;1196;-74
2022/09/10 06:13:19;;;;;;;;;;;;;;;;;;5060788;28;1378;-74
2022/09/10 06:15:44;;;;;;;;;;;;;;;;;;5056741;28;1302;-75
2022/09/10 06:18:09;;;;;;;;;;;;;;;;;;5058934;28;1346;-75
2022/09/10 06:20:35;;;;;;;;;;;;;;;;;;5066058;28;1395;-75
2022/09/10 06:23:01;;;;;;;;;;;;;;;;;;5061625;28;1894;-73
2022/09/10 06:25:26;;;;;;;;;;;;;;;;;;5064423;28;1202;-74
2022/09/10 06:27:52;;;;;;;;;;;;;;;;;;5063636;28;1235;-74
2022/09/10 06:30:19;;;;;;;;;;;;;;;;;;5065488;28;1337;-74
2022/09/10 06:32:44;;;;;;;;;;;;;;;;;;5064356;28;1346;-73
2022/09/10 06:35:09;;;;;;;;;;;;;;;;;;5056453;28;1365;-73
2022/09/10 06:37:35;;;;;;;;;;;;;;;;;;5055543;28;1264;-75
2022/09/10 06:40:00;;;;;;;;;;;;;;;;;;5060181;28;1203;-74
2022/09/10 06:42:25;;;;;;;;;;;;;;;;;;5042465;28;1898;-75
2022/09/10 06:44:51;;;;;;;;;;;;;;;;;;5059234;28;1263;-75
2022/09/10 06:47:16;;;;;;;;;;;;;;;;;;5054620;28;1328;-74
2022/09/10 06:49:41;;;;;;;;;;;;;;;;;;5053252;28;1303;-75
2022/09/10 06:52:07;;;;;;;;;;;;;;;;;;5058491;28;1247;-76
2022/09/10 06:54:32;;;;;;;;;;;;;;;;;;5059683;28;1286;-72
2022/09/10 06:56:57;;;;;;;;;;;;;;;;;;5057405;28;1566;-75
2022/09/10 06:59:22;;;;;;;;;;;;;;;;;;5059061;28;1309;-75
2022/09/10 07:01:48;;;;;;;;;;;;;;;;;;5056144;28;1902;-75
2022/09/10 07:04:13;;;;;;;;;;;;;;;;;;5057266;28;1279;-76
2022/09/10 07:06:41;;;;;;;;;;;;;;;;;;5059395;28;1235;-76
2022/09/10 07:09:07;;;;;;;;;;;;;;;;;;5058727;28;1310;-78
2022/09/10 07:11:32;;;;;;;;;;;;;;;;;;5060487;28;1235;-78
2022/09/10 07:13:58;;;;;;;;;;;;;;;;;;5056956;28;1435;-77
2022/09/10 07:16:24;;;;;;;;;;;;;;;;;;5056452;28;1209;-79
2022/09/10 07:18:50;;;;;;;;;;;;;;;;;;5057337;28;1362;-78
2022/09/10 07:21:16;;;;;;;;;;;;;;;;;;5060186;28;1905;-77
2022/09/10 07:23:43;;;;;;;;;;;;;;;;;;5059969;28;1327;-77
2022/09/10 07:26:11;;;;;;;;;;;;;;;;;;5057601;28;1206;-76
2022/09/10 07:28:37;;;;;;;;;;;;;;;;;;5053802;28;1278;-77
2022/09/10 07:31:13;;;;;;;;;;;;;;;;;;5056391;28;1324;-76
2022/09/10 07:33:38;;;;;;;;;;;;;;;;;;5057238;28;1271;-74
2022/09/10 07:36:05;;;;;;;;;;;;;;;;;;5055270;28;1292;-72
2022/09/10 07:38:30;;;;;;;;;;;;;;;;;;5056336;28;1247;-71
2022/09/10 07:40:58;;;;;;;;;;;;;;;;;;5050966;28;1340;-70
2022/09/10 07:43:23;;;;;;;;;;;;;;;;;;5051437;28;1897;-69
2022/09/10 07:45:48;;;;;;;;;;;;;;;;;;5055652;28;1263;-70
2022/09/10 07:48:14;;;;;;;;;;;;;;;;;;5059546;28;1338;-69
2022/09/10 07:50:39;;;;;;;;;;;;;;;;;;5056826;28;1348;-69
2022/09/10 07:53:05;;;;;;;;;;;;;;;;;;5034711;28;1354;-69
2022/09/10 07:55:30;;;;;;;;;;;;;;;;;;5061510;28;1504;-69
2022/09/10 07:57:55;;;;;;;;;;;;;;;;;;5045255;28;1350;-69
2022/09/10 08:00:21;;;;;;;;;;;;;;;;;;5063585;28;1247;-69
2022/09/10 08:02:46;;;;;;;;;;;;;;;;;;5062000;28;1898;-72
2022/09/10 08:05:12;;;;;;;;;;;;;;;;;;5066119;28;1255;-69
2022/09/10 08:07:38;;;;;;;;;;;;;;;;;;5059398;28;1629;-69
2022/09/10 08:10:08;;;;;;;;;;;;;;;;;;5063404;28;1377;-69
2022/09/10 08:12:33;;;;;;;;;;;;;;;;;;5043346;28;1370;-70
2022/09/10 08:14:59;;;;;;;;;;;;;;;;;;5059495;28;1795;-69
2022/09/10 08:17:25;;;;;;;;;;;;;;;;;;5062672;28;1293;-69
2022/09/10 08:19:50;;;;;;;;;;;;;;;;;;5071624;28;1262;-69
2022/09/10 08:22:15;;;;;;;;;;;;;;;;;;5069500;28;1968;-68
2022/09/10 08:24:41;;;;;;;;;;;;;;;;;;5067965;28;1310;-69
2022/09/10 08:27:06;;;;;;;;;;;;;;;;;;5069295;28;1250;-70
2022/09/10 08:29:31;;;;;;;;;;;;;;;;;;5060933;28;1748;-69
2022/09/10 08:31:57;;;;;;;;;;;;;;;;;;5045023;28;1153;-69
2022/09/10 08:34:23;;;;;;;;;;;;;;;;;;5060252;28;1342;-68
2022/09/10 08:36:48;;;;;;;;;;;;;;;;;;5062425;28;1072;-70
2022/09/10 08:39:13;;;;;;;;;;;;;;;;;;5062672;28;1250;-70
2022/09/10 08:41:48;;;;;;;;;;;;;;;;;;5061697;28;1964;-69
2022/09/10 08:44:30;;;;;;;;;;;;;;;;;;5038786;28;1366;-71
2022/09/10 08:47:00;;;;;;;;;;;;;;;;;;5060828;28;1357;-72
2022/09/10 08:49:38;;;;;;;;;;;;;;;;;;5060478;28;1389;-72
2022/09/10 08:52:19;;;;;;;;;;;;;;;;;;5056798;28;1665;-72
2022/09/10 08:54:54;;;;;;;;;;;;;;;;;;5051498;28;1413;-73
2022/09/10 08:57:25;;;;;;;;;;;;;;;;;;5038108;28;1540;-73
2022/09/10 08:59:52;;;;;;;;;;;;;;;;;;5061095;28;1282;-75
2022/09/10 09:02:25;;;;;;;;;;;;;;;;;;5058024;28;1989;-72
2022/09/10 09:04:50;;;;;;;;;;;;;;;;;;5060639;28;1594;-72
2022/09/10 09:07:18;;;;;;;;;;;;;;;;;;5062422;28;1255;-72
2022/09/10 09:09:43;;;;;;;;;;;;;;;;;;5062534;28;1330;-72
2022/09/10 09:12:17;;;;;;;;;;;;;;;;;;5043083;28;1560;-72
2022/09/10 09:14:57;;;;;;;;;;;;;;;;;;5060679;28;1263;-72
2022/09/10 09:17:25;;;;;;;;;;;;;;;;;;5061555;28;1227;-72
2022/09/10 09:20:04;;;;;;;;;;;;;;;;;;5059448;28;1212;-72
2022/09/10 09:22:29;;;;;;;;;;;;;;;;;;5061574;28;1898;-72
2022/09/10 09:24:59;;;;;;;;;;;;;;;;;;5061619;28;1310;-72
2022/09/10 09:27:26;;;;;;;;;;;;;;;;;;5061801;28;1330;-71
2022/09/10 09:30:00;;;;;;;;;;;;;;;;;;5061844;28;1235;-72
2022/09/10 09:32:27;;;;;;;;;;;;;;;;;;5060677;28;1263;-72
2022/09/10 09:34:59;;;;;;;;;;;;;;;;;;5061242;28;1306;-72
2022/09/10 09:37:28;;;;;;;;;;;;;;;;;;5060735;28;1275;-72
2022/09/10 09:40:11;;;;;;;;;;;;;;;;;;5061968;28;1254;-73
2022/09/10 09:42:55;;;;;;;;;;;;;;;;;;5061158;28;1969;-72
2022/09/10 09:45:36;;;;;;;;;;;;;;;;;;5056411;28;1290;-72
2022/09/10 09:48:03;;;;;;;;;;;;;;;;;;5061706;28;1247;-72
2022/09/10 09:50:30;;;;;;;;;;;;;;;;;;5061507;28;1243;-71
2022/09/10 09:52:55;;;;;;;;;;;;;;;;;;5061307;28;1259;-72
2022/09/10 09:55:32;;;;;;;;;;;;;;;;;;5060913;28;1310;-71
2022/09/10 09:58:16;;;;;;;;;;;;;;;;;;5060825;28;1224;-71
2022/09/10 10:00:43;;;;;;;;;;;;;;;;;;5060329;28;1258;-71
2022/09/10 10:03:17;;;;;;;;;;;;;;;;;;5061031;28;1898;-71
2022/09/10 10:05:42;;;;;;;;;;;;;;;;;;5060824;28;1315;-71
2022/09/10 10:08:27;;;;;;;;;;;;;;;;;;5061225;28;1192;-71
2022/09/10 10:10:53;;;;;;;;;;;;;;;;;;5060273;28;1153;-71
2022/09/10 10:13:19;;;;;;;;;;;;;;;;;;5060196;28;1350;-71
2022/09/10 10:15:45;;;;;;;;;;;;;;;;;;5042632;28;1288;-72
2022/09/10 10:18:22;;;;;;;;;;;;;;;;;;5061073;28;1353;-71
2022/09/10 10:20:48;;;;;;;;;;;;;;;;;;5061078;28;1160;-71
2022/09/10 10:23:28;;;;;;;;;;;;;;;;;;5060987;28;1910;-71
2022/09/10 10:25:54;;;;;;;;;;;;;;;;;;5060487;28;1259;-72
2022/09/10 10:28:23;;;;;;;;;;;;;;;;;;5060904;28;1433;-72
2022/09/10 10:30:50;;;;;;;;;;;;;;;;;;5060782;28;1287;-72
2022/09/10 10:33:22;;;;;;;;;;;;;;;;;;5060646;28;1310;-72
2022/09/10 10:36:01;;;;;;;;;;;;;;;;;;5059525;28;1243;-72
2022/09/10 10:38:26;;;;;;;;;;;;;;;;;;5060916;28;1231;-73
2022/09/10 10:40:55;;;;;;;;;;;;;;;;;;5058577;28;1294;-72
2022/09/10 10:43:26;;;;;;;;;;;;;;;;;;5056314;28;1973;-72
2022/09/10 10:46:08;;;;;;;;;;;;;;;;;;5059918;28;1207;-73
2022/09/10 10:48:51;;;;;;;;;;;;;;;;;;5056849;28;1188;-73
2022/09/10 10:51:16;;;;;;;;;;;;;;;;;;5060196;28;1283;-72
2022/09/10 10:53:57;;;;;;;;;;;;;;;;;;5060958;28;1271;-72
2022/09/10 10:56:31;;;;;;;;;;;;;;;;;;5054088;28;1215;-72
2022/09/10 10:59:15;;;;;;;;;;;;;;;;;;5059002;28;1483;-72
2022/09/10 11:01:43;;;;;;;;;;;;;;;;;;5038451;28;1955;-72
2022/09/10 11:04:27;;;;;;;;;;;;;;;;;;5042335;28;1346;-73
2022/09/10 11:07:00;;;;;;;;;;;;;;;;;;5041532;28;1252;-73
2022/09/10 11:09:31;;;;;;;;;;;;;;;;;;5060598;28;1235;-72
2022/09/10 11:11:59;;;;;;;;;;;;;;;;;;5042722;28;1320;-72
2022/09/10 11:14:34;;;;;;;;;;;;;;;;;;5059711;28;1314;-72
2022/09/10 11:17:23;;;;;;;;;;;;;;;;;;5042479;28;1296;-72
2022/09/10 11:20:15;;;;;;;;;;;;;;;;;;5043980;28;1265;-73
2022/09/10 11:22:44;;;;;;;;;;;;;;;;;;5054401;28;1901;-72
2022/09/10 11:25:30;;;;;;;;;;;;;;;;;;5051332;28;1413;-72
2022/09/10 11:28:00;;;;;;;;;;;;;;;;;;5060002;28;1303;-73
2022/09/10 11:30:25;;;;;;;;;;;;;;;;;;5059619;28;1210;-72
2022/09/10 11:32:56;;;;;;;;;;;;;;;;;;5059617;28;1279;-72
2022/09/10 11:35:27;;;;;;;;;;;;;;;;;;5057492;28;1232;-72
2022/09/10 11:37:53;;;;;;;;;;;;;;;;;;5058867;28;1220;-72
2022/09/10 11:40:24;;;;;;;;;;;;;;;;;;5059819;28;1200;-72
2022/09/10 11:42:52;;;;;;;;;;;;;;;;;;5059772;28;1893;-73
2022/09/10 11:45:36;;;;;;;;;;;;;;;;;;5059008;28;1309;-72
2022/09/10 11:48:02;;;;;;;;;;;;;;;;;;5059296;28;1231;-72
2022/09/10 11:50:46;;;;;;;;;;;;;;;;;;5059067;28;1323;-73
2022/09/10 11:53:16;;;;;;;;;;;;;;;;;;5059645;28;1289;-73
2022/09/10 11:55:41;;;;;;;;;;;;;;;;;;5057295;28;1223;-73
2022/09/10 11:58:21;;;;;;;;;;;;;;;;;;5058210;28;1267;-73
2022/09/10 12:00:56;;;;;;;;;;;;;;;;;;5041185;28;1433;-73
2022/09/10 12:03:39;;;;;;;;;;;;;;;;;;5057966;28;1890;-72
2022/09/10 12:06:15;;;;;;;;;;;;;;;;;;5039025;28;1236;-73
2022/09/10 12:08:47;;;;;;;;;;;;;;;;;;5056505;28;1447;-71
2022/09/10 12:11:23;;;;;;;;;;;;;;;;;;5057096;28;1251;-71
2022/09/10 12:13:49;;;;;;;;;;;;;;;;;;5057871;28;1378;-72
2022/09/10 12:16:14;;;;;;;;;;;;;;;;;;5055805;28;1404;-72
2022/09/10 12:18:41;;;;;;;;;;;;;;;;;;5058014;28;1412;-72
2022/09/10 12:21:26;;;;;;;;;;;;;;;;;;5059344;28;1242;-73
2022/09/10 12:23:51;;;;;;;;;;;;;;;;;;5058935;28;1286;-72
2022/09/10 12:26:19;;;;;;;;;;;;;;;;;;5058829;28;1167;-73
2022/09/10 12:28:44;;;;;;;;;;;;;;;;;;5059395;28;1231;-72
2022/09/10 12:31:11;;;;;;;;;;;;;;;;;;5058153;28;1195;-72
2022/09/10 12:33:45;;;;;;;;;;;;;;;;;;5059092;28;1366;-72
2022/09/10 12:36:33;;;;;;;;;;;;;;;;;;5058479;28;1188;-72
2022/09/10 12:39:10;;;;;;;;;;;;;;;;;;5058158;28;1224;-72
2022/09/10 12:41:35;;;;;;;;;;;;;;;;;;5059078;28;1956;-72
2022/09/10 12:44:01;;;;;;;;;;;;;;;;;;5058723;28;1589;-72
2022/09/10 12:46:27;;;;;;;;;;;;;;;;;;5058432;28;1555;-72
2022/09/10 12:48:54;;;;;;;;;;;;;;;;;;5057325;28;1215;-72
2022/09/10 12:51:29;;;;;;;;;;;;;;;;;;5058762;28;1203;-72
2022/09/10 12:54:03;;;;;;;;;;;;;;;;;;5055892;28;1370;-72
2022/09/10 12:56:36;;;;;;;;;;;;;;;;;;5054391;28;1271;-71
2022/09/10 12:59:10;;;;;;;;;;;;;;;;;;5057622;28;1361;-71
2022/09/10 13:01:38;;;;;;;;;;;;;;;;;;5056556;28;1890;-70
2022/09/10 13:04:04;;;;;;;;;;;;;;;;;;5055176;28;1374;-71
2022/09/10 13:06:48;;;;;;;;;;;;;;;;;;5057860;28;1337;-73
2022/09/10 13:09:30;;;;;;;;;;;;;;;;;;5062246;28;1219;-71
2022/09/10 13:11:57;;;;;;;;;;;;;;;;;;5055662;28;1350;-71
2022/09/10 13:14:29;;;;;;;;;;;;;;;;;;5059660;28;1294;-70
2022/09/10 13:16:54;;;;;;;;;;;;;;;;;;5057010;28;1284;-71
2022/09/10 13:19:19;;;;;;;;;;;;;;;;;;5061707;28;1214;-71
2022/09/10 13:21:45;;;;;;;;;;;;;;;;;;5042019;28;1906;-71
2022/09/10 13:24:30;;;;;;;;;;;;;;;;;;5056145;28;1263;-71
2022/09/10 13:27:02;;;;;;;;;;;;;;;;;;5060099;28;1203;-72
2022/09/10 13:29:35;;;;;;;;;;;;;;;;;;5060117;28;1228;-71
2022/09/10 13:32:14;;;;;;;;;;;;;;;;;;5053756;28;1333;-70
2022/09/10 13:35:07;;;;;;;;;;;;;;;;;;5038271;28;1382;-71
2022/09/10 13:37:45;;;;;;;;;;;;;;;;;;5056429;28;1216;-70
2022/09/10 13:40:20;;;;;;;;;;;;;;;;;;5059451;28;1368;-70
2022/09/10 13:43:06;;;;;;;;;;;;;;;;;;5060641;28;1905;-70
2022/09/10 13:45:39;;;;;;;;;;;;;;;;;;5055457;28;1405;-70
2022/09/10 13:48:05;;;;;;;;;;;;;;;;;;5060605;28;1353;-71
2022/09/10 13:50:36;;;;;;;;;;;;;;;;;;5055679;28;1354;-70
2022/09/10 13:53:03;;;;;;;;;;;;;;;;;;5061580;28;1244;-71
2022/09/10 13:55:29;;;;;;;;;;;;;;;;;;5059997;28;1416;-71
2022/09/10 13:57:59;;;;;;;;;;;;;;;;;;5061152;28;1291;-71
2022/09/10 14:00:39;;;;;;;;;;;;;;;;;;5058780;28;1614;-71
2022/09/10 14:03:12;;;;;;;;;;;;;;;;;;5060383;28;1910;-70
2022/09/10 14:05:41;;;;;;;;;;;;;;;;;;5057878;28;1294;-73
2022/09/10 14:08:06;;;;;;;;;;;;;;;;;;5062732;28;1628;-72
2022/09/10 14:10:34;;;;;;;;;;;;;;;;;;5060884;28;1400;-71
2022/09/10 14:12:59;;;;;;;;;;;;;;;;;;5060162;28;1318;-71
2022/09/10 14:15:28;;;;;;;;;;;;;;;;;;5058272;28;1265;-71
2022/09/10 14:17:55;;;;;;;;;;;;;;;;;;5059836;28;1361;-71
2022/09/10 14:20:24;;;;;;;;;;;;;;;;;;5057200;28;1302;-70
2022/09/10 14:23:03;;;;;;;;;;;;;;;;;;5051646;28;1967;-70
2022/09/10 14:25:31;;;;;;;;;;;;;;;;;;5059959;28;1344;-71
2022/09/10 14:28:14;;;;;;;;;;;;;;;;;;5060937;28;1279;-71
2022/09/10 14:30:39;;;;;;;;;;;;;;;;;;5060414;28;1389;-71
2022/09/10 14:33:24;;;;;;;;;;;;;;;;;;5060672;28;1310;-71
2022/09/10 14:35:51;;;;;;;;;;;;;;;;;;5058372;28;1864;-71
2022/09/10 14:38:24;;;;;;;;;;;;;;;;;;5059986;28;1282;-71
2022/09/10 14:40:57;;;;;;;;;;;;;;;;;;5042834;28;1299;-71
2022/09/10 14:43:27;;;;;;;;;;;;;;;;;;5057802;28;1898;-71
2022/09/10 14:45:52;;;;;;;;;;;;;;;;;;5055994;28;1316;-71
2022/09/10 14:48:37;;;;;;;;;;;;;;;;;;5059508;28;1212;-71
2022/09/10 14:51:11;;;;;;;;;;;;;;;;;;5052920;28;1334;-72
2022/09/10 14:53:37;;;;;;;;;;;;;;;;;;5059780;28;1248;-72
2022/09/10 14:56:12;;;;;;;;;;;;;;;;;;5059041;28;1049;-72
2022/09/10 14:58:37;;;;;;;;;;;;;;;;;;5060386;28;1215;-71
2022/09/10 15:01:02;;;;;;;;;;;;;;;;;;5054062;28;1402;-71
2022/09/10 15:03:28;;;;;;;;;;;;;;;;;;5059239;28;1897;-71
2022/09/10 15:05:53;;;;;;;;;;;;;;;;;;5056884;28;1317;-71
2022/09/10 15:08:18;;;;;;;;;;;;;;;;;;5057983;28;1405;-71
2022/09/10 15:10:43;;;;;;;;;;;;;;;;;;5058732;28;1342;-71
2022/09/10 15:13:13;;;;;;;;;;;;;;;;;;5056373;28;1343;-71
2022/09/10 15:15:38;;;;;;;;;;;;;;;;;;5053932;28;1264;-71
2022/09/10 15:18:09;;;;;;;;;;;;;;;;;;5059976;28;1274;-72
2022/09/10 15:20:34;;;;;;;;;;;;;;;;;;5058348;28;1361;-71
2022/09/10 15:22:59;;;;;;;;;;;;;;;;;;5059969;28;1969;-71
2022/09/10 15:25:24;;;;;;;;;;;;;;;;;;5058990;28;1274;-71
2022/09/10 15:27:49;;;;;;;;;;;;;;;;;;5059233;28;1184;-72
2022/09/10 15:30:15;;;;;;;;;;;;;;;;;;5039325;28;1345;-72
2022/09/10 15:32:40;;;;;;;;;;;;;;;;;;5058708;28;1330;-72
2022/09/10 15:35:05;;;;;;;;;;;;;;;;;;5064290;28;1231;-72
2022/09/10 15:37:31;;;;;;;;;;;;;;;;;;5063609;28;1342;-71
2022/09/10 15:39:56;;;;;;;;;;;;;;;;;;5063414;28;1455;-71
2022/09/10 15:42:21;;;;;;;;;;;;;;;;;;5060101;28;1975;-71
2022/09/10 15:44:47;;;;;;;;;;;;;;;;;;5058007;28;1476;-71
2022/09/10 15:47:12;;;;;;;;;;;;;;;;;;5062441;28;1400;-72
2022/09/10 15:49:37;;;;;;;;;;;;;;;;;;5066145;28;1262;-75
2022/09/10 15:52:02;;;;;;;;;;;;;;;;;;5066949;28;1246;-75
2022/09/10 15:54:27;;;;;;;;;;;;;;;;;;5061018;28;1440;-75
2022/09/10 15:56:53;;;;;;;;;;;;;;;;;;5063094;28;1255;-75
2022/09/10 15:59:18;;;;;;;;;;;;;;;;;;5061755;28;1411;-75
2022/09/10 16:01:43;;;;;;;;;;;;;;;;;;5065902;28;1985;-75
2022/09/10 16:04:08;;;;;;;;;;;;;;;;;;5044879;28;1307;-74
2022/09/10 16:06:35;;;;;;;;;;;;;;;;;;5063312;28;1357;-74
2022/09/10 16:09:02;;;;;;;;;;;;;;;;;;5062262;28;1384;-74
2022/09/10 16:11:29;;;;;;;;;;;;;;;;;;5047348;28;1495;-74
2022/09/10 16:13:56;;;;;;;;;;;;;;;;;;5063285;28;1322;-74
2022/09/10 16:16:22;;;;;;;;;;;;;;;;;;5046887;28;1401;-74
2022/09/10 16:18:50;;;;;;;;;;;;;;;;;;5064743;28;1403;-75
2022/09/10 16:21:17;;;;;;;;;;;;;;;;;;5060284;28;1399;-75
2022/09/10 16:23:43;;;;;;;;;;;;;;;;;;5066492;28;1961;-75
2022/09/10 16:26:10;;;;;;;;;;;;;;;;;;5065099;28;1444;-74
2022/09/10 16:28:36;;;;;;;;;;;;;;;;;;5068435;28;1218;-74
2022/09/10 16:31:11;;;;;;;;;;;;;;;;;;5067487;28;1437;-74
2022/09/10 16:33:37;;;;;;;;;;;;;;;;;;5059555;28;1391;-75
2022/09/10 16:36:03;;;;;;;;;;;;;;;;;;5061575;28;1365;-73
2022/09/10 16:38:28;;;;;;;;;;;;;;;;;;5065575;28;1360;-77
2022/09/10 16:41:00;;;;;;;;;;;;;;;;;;5047467;28;1259;-77
2022/09/10 16:43:25;;;;;;;;;;;;;;;;;;5051787;28;1890;-76
2022/09/10 16:45:50;;;;;;;;;;;;;;;;;;5068170;28;1246;-76
2022/09/10 16:48:16;;;;;;;;;;;;;;;;;;5072109;28;1358;-76
2022/09/10 16:50:41;;;;;;;;;;;;;;;;;;5066440;28;1346;-75
2022/09/10 16:53:06;;;;;;;;;;;;;;;;;;5066778;28;1365;-75
2022/09/10 16:55:31;;;;;;;;;;;;;;;;;;5067533;28;1371;-75
2022/09/10 16:57:56;;;;;;;;;;;;;;;;;;5066575;28;1231;-76
2022/09/10 17:00:22;;;;;;;;;;;;;;;;;;5064790;28;1309;-76
2022/09/10 17:02:48;;;;;;;;;;;;;;;;;;5070643;28;1960;-76
2022/09/10 17:05:13;;;;;;;;;;;;;;;;;;5064433;28;1326;-76
2022/09/10 17:07:38;;;;;;;;;;;;;;;;;;5064631;28;1731;-74
2022/09/10 17:10:04;;;;;;;;;;;;;;;;;;5064412;28;1322;-76
2022/09/10 17:12:30;;;;;;;;;;;;;;;;;;5067398;28;1431;-76